CST,Max TemperatureF,Mean TemperatureF,Min TemperatureF,Max Dew PointF,MeanDew PointF,Min DewpointF,Max Humidity, Mean Humidity, Min Humidity, Max Sea Level PressureIn, Mean Sea Level PressureIn, Min Sea Level PressureIn, Max VisibilityMiles, Mean VisibilityMiles, Min VisibilityMiles, Max Wind SpeedMPH, Mean Wind SpeedMPH, Max Gust SpeedMPH,PrecipitationIn, CloudCover, Events, WindDirDegrees
2013-12-1,42,32,23,30,28,21,100,83,57,30.14,30.06,29.95,10,8,4,7,2,,0.00,3,,46
2013-12-2,41,36,30,36,32,28,93,87,76,29.93,29.76,29.64,10,5,2,20,8,23,0.01,6,Rain,119
2013-12-3,42,40,37,43,39,36,100,98,93,29.66,29.63,29.58,2,1,0,15,8,15,0.00,8,Fog-Rain,102
2013-12-4,50,37,24,50,39,21,100,97,86,29.78,29.59,29.43,10,4,0,23,10,31,0.00,8,Fog-Rain,166
2013-12-5,24,18,12,21,10,5,86,73,63,30.32,30.10,29.79,10,10,7,24,19,31,0.00,6,Rain-Snow,286
2013-12-6,15,10,5,5,1,-2,79,65,53,30.60,30.46,30.31,10,10,10,16,12,21,0.00,1,,311
2013-12-7,15,8,0,3,-3,-8,78,64,41,30.73,30.64,30.57,10,10,9,13,7,16,0.00,1,Snow,323
2013-12-8,21,16,12,18,10,0,93,75,57,30.56,30.21,29.97,10,7,1,14,7,18,0.01,8,Snow,78
2013-12-9,17,2,-13,16,-3,-18,93,76,56,30.24,30.14,29.97,10,10,3,16,8,23,0.00,2,Rain-Snow,269
2013-12-10,17,4,-9,14,4,-15,93,71,62,30.25,30.11,29.93,10,9,2,25,11,36,0.00,5,Rain-Snow,247
2013-12-11,15,2,-11,14,-3,-17,93,73,52,30.57,30.45,30.23,10,8,1,16,5,23,0.04,3,Snow,290
2013-12-12,19,6,-7,10,0,-15,92,72,62,30.52,30.31,30.17,10,10,9,13,6,22,0.00,1,,215
2013-12-13,26,13,0,21,12,-4,93,80,69,30.16,30.08,30.02,10,10,8,16,4,24,0.00,2,Snow,70
2013-12-14,24,19,14,19,16,7,93,83,73,30.08,30.05,30.03,10,9,2,20,12,25,0.00,7,Rain-Snow,351
2013-12-15,14,10,5,7,2,-2,85,71,62,30.11,30.08,30.04,10,9,2,20,12,26,0.00,7,Rain-Snow,308
2013-12-16,21,16,10,19,10,5,100,84,73,30.10,30.05,29.98,10,8,1,12,6,20,0.00,8,Snow,153
2013-12-17,33,24,14,25,18,10,100,79,60,30.15,30.05,29.98,10,9,4,25,10,33,0.00,2,,270
2013-12-18,37,22,6,28,18,3,93,78,55,30.14,29.92,29.76,10,10,10,18,5,24,0.00,0,,163
2013-12-19,33,25,17,30,24,16,100,90,75,29.89,29.82,29.78,10,8,2,16,4,23,0.00,3,,55
2013-12-20,32,28,23,30,24,21,100,96,86,29.86,29.82,29.78,10,6,2,15,9,24,0.01,8,Rain,22
2013-12-21,28,26,24,27,25,23,100,94,86,29.86,29.81,29.69,9,5,1,14,6,22,0.00,8,Snow,13
2013-12-22,28,19,10,27,19,7,100,87,79,30.21,29.93,29.70,10,6,0,18,12,24,0.05,8,Rain-Snow,325
2013-12-23,8,0,-7,3,-9,-15,79,72,66,30.49,30.39,30.22,10,10,10,17,12,21,0.00,3,Snow,284
2013-12-24,12,-3,-18,9,-11,-26,85,73,66,30.53,30.43,30.23,10,10,1,14,5,17,0.00,3,Snow,148
2013-12-25,24,18,12,23,17,7,100,88,68,30.23,30.16,30.11,10,6,0,20,10,28,0.00,6,Snow,239
2013-12-26,30,22,14,25,19,10,100,86,79,30.19,30.17,30.10,10,10,5,10,5,,0.00,8,,190
2013-12-27,39,21,3,28,17,0,100,83,65,30.24,30.15,30.06,10,6,0,14,2,17,0.00,3,Fog-Snow,181
2013-12-28,41,32,23,32,28,21,93,80,70,30.06,29.94,29.78,10,10,9,12,5,,0.00,0,,178
2013-12-29,35,15,-5,30,8,-17,93,76,60,30.29,30.06,29.78,10,10,4,25,19,34,0.00,5,Snow,314
2013-12-30,5,-4,-14,0,-11,-22,85,72,55,30.31,30.25,30.18,10,7,0,9,2,,0.00,5,Snow,151
2013-12-31,8,-4,-16,3,-5,-24,85,78,70,30.33,30.26,30.20,10,8,1,12,2,18,0.01,6,Snow,41